Whiting Field Naval Air Station North Airport
KNSE : now visible

Airfield :











YOU CAN JOIN US ON...

 
LOGIN :

Register | Disclaimer

   EN    FR    IT 

 









Legend :    VFR   Marginal VFR   IFR   Intensive IFR   Very Intensive IFR
Visi :
Ceiling :
>= 8 km
>= 3000ft
5 to 8 km
1000 to 3000 ft
1500m to 5 km
500 to 1000 ft
800 to 1500m
200 to 500 ft
< 800m
< 200 ft
Symbols :   Thunderstorms  Fog  Heavy snow  Heavy precipitations  Wind > 20 kt







- Airport Elevation : 199 ft


KNSE - Whiting Field Naval Air Station North

CURRENT METAR :
  • 201656Z 24004KT 10SM FEW035 SCT090 BKN120 BKN250 25/23 A3011 RMK AO2 SLP175 RAE24 TSE12 CB DSNT NW-N T2 SET T02500233 PNO $

EXPIRED METARs :
  • 201626Z 22007KT 10SM FEW030 SCT060 BKN120 BKN250 24/23 A3011 RMK AO2 RAE24 TSE12 OCNL LTGICCG DSNT NW CB DSNT NW T2 SET T02440233 PNO $
  • 201613Z 22010KT 6SM -RA BR SCT015 SCT040 BKN080 BKN250 24/23 A3011 RMK AO2 TSE12 OCNL LTGICCG DSNT NW CB DSNT NW T2 SET T02390233 PNO $
  • 201556Z 22010KT 6SM TSRA BR FEW007 SCT035CB BKN080 BKN250 23/23 A3010 RMK AO2 TSE34B53 PRESFR SLP171 OCNL LTGICCG VC W-NW TS W-NW MOV NW T1 SET T02330233 PNO $
  • 201541Z 21010KT 3SM RA BR FEW010 SCT015 BKN030 OVC250 23/23 A3012 RMK AO2 TSE34 OCNL LTGICCG DSNT W-NW CB DSNT W-NW T1 SET T02330233 PNO $
  • 201526Z 21010KT 3/4SM +TSRA BR SCT006 BKN015CB OVC025 23/23 A3013 RMK AO2 VIS E 1/2 OCNL LTGICCG VC SW-NW TS SW-NW MOV NW T1 SET T02280228 PNO $
  • 201505Z 19014KT 3/4SM +TSRA BKN006CB OVC015 23/23 A3013 RMK AO2 PRESRR OCNL LTGIC OHD TS OHD MOV NW T1 SET P0000 T02330233 $
  • 201456Z COR 17013KT 2SM +TSRA BKN009CB BKN014 OVC025 24/23 A3012 RMK AO2 RAB56 TSB47 SLP175 OCNL LTGICCG OHD TS OHD MOV NW T1 SET P0000 60000 T02440228 53014 $

TAF AMD TAF KNSE
Valid from the 20 at 15:00 until the 21 at 15:00 UTC


2015/2115 14012KT 9999 VCTS SCT025CB SCT120 BKN250 QNH3005INS
TEMPO 2015/2020 VRB15G25KT 0800 +TSRA SCT015 BKN020CB OVC040
BECMG 2020/2022 VRB05KT 9999 NSW FEW030 SCT120 BKN250 QNH2993INS
FM210100 22006KT 9999 FEW020 SCT120 QNH2995INS
BECMG 2105/2107 18007KT 9999 FEW120 QNH2996INS
FM211100 VRB05KT 9999 VCSH FEW030 SCT120 SCT250 QNH3000INS T30/2021Z T25/2110Z AMD 1535 FN00216
KZJX FIR / North America



MET'MAP, your aeronautical weather chart ! - Copyright ORBIFLY December 2007 - Disclaimer

ORBIFLY MET'MAP TEAM :

Programming & Development : Alexandra Zaïnal
Concept & Development : Baudouin d'Aumeries
Co-Development & Prog : Marc-Olivier Méhu
Technical & hardware support : Manuel Goepfert

Contact : metmap@orbifly.com




SOURCES & CREDITS :

   NOAA       Earth
Advisory